Time;durP1;ratioP1;P1;durP2;ratioP2;P2;SDS_P1;SDS_P2;PMS_P1;PMS_P2;Temp;Humidity;BMP_temperature;BMP_pressure;BME280_temperature;BME280_humidity;BME280_pressure;Samples;Min_cycle;Max_cycle;Signal;HPM_P1;HPM_P2
2020/12/20 00:00:59;;;;;;;31.80;22.48;;;6.10;99.90;;;;;;5023677;28;20146;-70
2020/12/20 00:03:26;;;;;;;32.17;22.65;;;6.10;99.90;;;;;;5036631;28;20051;-74
2020/12/20 00:05:53;;;;;;;39.05;23.67;;;6.00;99.90;;;;;;5030684;28;20041;-69
2020/12/20 00:08:20;;;;;;;36.50;23.45;;;6.10;99.90;;;;;;5034526;28;20045;-70
2020/12/20 00:10:46;;;;;;;35.08;23.52;;;6.10;99.90;;;;;;5028075;28;20484;-71
2020/12/20 00:13:17;;;;;;;29.70;20.92;;;6.10;99.90;;;;;;5032697;28;20094;-68
2020/12/20 00:15:46;;;;;;;29.08;20.80;;;6.10;99.90;;;;;;5029279;28;20488;-72
2020/12/20 00:18:13;;;;;;;34.20;22.15;;;6.20;99.90;;;;;;5027725;28;20052;-70
2020/12/20 00:20:39;;;;;;;32.28;21.00;;;6.10;99.90;;;;;;5028222;28;20046;-71
2020/12/20 00:23:06;;;;;;;31.65;22.85;;;6.20;99.90;;;;;;5026852;28;20083;-72
2020/12/20 00:25:32;;;;;;;32.03;22.77;;;6.20;99.90;;;;;;5025221;28;20047;-71
2020/12/20 00:27:59;;;;;;;32.20;22.00;;;6.20;99.90;;;;;;5033108;28;20045;-74
2020/12/20 00:30:25;;;;;;;37.90;21.92;;;6.10;99.90;;;;;;5026812;28;20071;-74
2020/12/20 00:32:52;;;;;;;35.72;22.13;;;6.20;99.90;;;;;;5027413;28;20378;-72
2020/12/20 00:35:18;;;;;;;32.72;21.67;;;6.20;99.90;;;;;;5033269;28;20107;-68
2020/12/20 00:37:45;;;;;;;29.67;20.33;;;6.20;99.90;;;;;;5027130;28;20140;-68
2020/12/20 00:40:12;;;;;;;35.33;23.45;;;6.20;99.90;;;;;;5024027;28;20140;-71
2020/12/20 00:42:38;;;;;;;34.22;22.75;;;6.10;99.90;;;;;;5028074;28;20130;-69
2020/12/20 00:45:05;;;;;;;33.20;22.63;;;6.10;99.90;;;;;;5028994;28;20046;-68
2020/12/20 00:47:32;;;;;;;33.38;22.88;;;6.20;99.90;;;;;;5035016;28;20045;-75
2020/12/20 00:49:59;;;;;;;30.70;24.05;;;6.20;99.90;;;;;;5025023;28;20579;-70
2020/12/20 00:52:26;;;;;;;40.42;24.48;;;6.10;99.90;;;;;;5024268;28;20144;-74
2020/12/20 00:54:56;;;;;;;31.40;21.95;;;6.20;99.90;;;;;;5022361;28;20052;-73
2020/12/20 00:57:23;;;;;;;34.90;22.80;;;6.20;99.90;;;;;;5057196;28;20048;-72
2020/12/20 00:59:50;;;;;;;35.30;23.45;;;6.10;99.90;;;;;;5030830;28;20108;-69
2020/12/20 01:02:16;;;;;;;37.80;23.40;;;6.10;99.90;;;;;;5028224;28;20393;-73
2020/12/20 01:04:43;;;;;;;32.05;21.65;;;6.10;99.90;;;;;;5030430;28;20057;-68
2020/12/20 01:07:10;;;;;;;36.53;22.95;;;6.20;99.90;;;;;;5029338;28;20103;-77
2020/12/20 01:09:45;;;;;;;34.33;22.48;;;6.20;99.90;;;;;;5025162;28;20053;-70
2020/12/20 01:12:14;;;;;;;35.00;24.75;;;6.20;99.90;;;;;;5025292;28;20073;-70
2020/12/20 01:15:00;;;;;;;35.65;21.77;;;6.10;99.90;;;;;;5028123;28;20041;-70
2020/12/20 01:17:27;;;;;;;28.55;19.45;;;6.20;99.90;;;;;;5053887;28;20144;-69
2020/12/20 01:19:55;;;;;;;36.88;23.08;;;6.20;99.90;;;;;;5031298;28;20076;-72
2020/12/20 01:22:22;;;;;;;33.97;20.98;;;6.20;99.90;;;;;;5031277;28;20135;-70
2020/12/20 01:24:49;;;;;;;33.67;19.65;;;6.20;99.90;;;;;;5025612;28;20045;-69
2020/12/20 01:27:18;;;;;;;31.30;20.33;;;6.20;99.90;;;;;;5026627;28;20045;-73
2020/12/20 01:29:45;;;;;;;37.00;21.73;;;6.20;99.90;;;;;;5028108;28;20095;-72
2020/12/20 01:32:16;;;;;;;29.35;19.42;;;6.20;99.90;;;;;;5024984;28;20524;-67
2020/12/20 01:34:45;;;;;;;28.30;19.52;;;6.20;99.90;;;;;;5064444;28;20049;-81
2020/12/20 01:37:13;;;;;;;27.58;19.75;;;6.20;99.90;;;;;;5029145;28;20129;-67
2020/12/20 01:39:47;;;;;;;27.17;19.50;;;6.20;99.90;;;;;;5032819;28;20056;-69
2020/12/20 01:42:14;;;;;;;28.98;20.15;;;6.20;99.90;;;;;;5033387;28;20045;-70
2020/12/20 01:44:41;;;;;;;25.58;20.90;;;6.20;99.90;;;;;;5021175;28;20505;-74
2020/12/20 01:47:08;;;;;;;30.40;18.77;;;6.20;99.90;;;;;;5031503;28;20053;-70
2020/12/20 01:49:36;;;;;;;27.85;19.00;;;6.20;99.90;;;;;;5025766;28;20060;-73
2020/12/20 01:52:04;;;;;;;28.63;18.35;;;6.20;99.90;;;;;;5028121;28;20160;-76
2020/12/20 01:54:33;;;;;;;28.60;19.63;;;6.20;99.90;;;;;;5024997;28;20046;-69
2020/12/20 01:57:08;;;;;;;28.13;18.63;;;6.20;99.90;;;;;;5021003;28;20169;-68
2020/12/20 01:59:55;;;;;;;24.98;18.10;;;6.20;99.90;;;;;;5031718;28;20052;-69
2020/12/20 02:02:26;;;;;;;27.83;18.67;;;6.20;99.90;;;;;;5029410;28;20590;-71
2020/12/20 02:04:53;;;;;;;30.27;20.48;;;6.20;99.90;;;;;;5024131;28;20069;-68
2020/12/20 02:07:19;;;;;;;26.40;19.88;;;6.20;99.90;;;;;;5033233;28;20045;-72
2020/12/20 02:09:49;;;;;;;26.92;16.40;;;6.20;99.90;;;;;;5027936;28;20056;-74
2020/12/20 02:12:17;;;;;;;27.73;19.67;;;6.20;99.90;;;;;;5030481;28;20180;-69
2020/12/20 02:15:01;;;;;;;29.02;19.65;;;6.20;99.90;;;;;;5033904;28;20048;-76
2020/12/20 02:17:28;;;;;;;43.72;19.50;;;6.20;99.90;;;;;;5059606;28;20132;-70
2020/12/20 02:20:00;;;;;;;32.67;20.20;;;6.20;99.90;;;;;;5032498;28;20045;-74
2020/12/20 02:22:46;;;;;;;28.58;19.13;;;6.20;99.90;;;;;;5032887;28;20044;-78
2020/12/20 02:25:15;;;;;;;26.42;19.20;;;6.20;99.90;;;;;;5023973;28;20516;-70
2020/12/20 02:27:55;;;;;;;31.73;19.45;;;6.10;99.90;;;;;;5031562;28;20671;-70
2020/12/20 02:30:26;;;;;;;;;;;6.10;99.90;;;;;;5031683;28;20053;-73
2020/12/20 02:32:52;;;;;;;29.98;19.30;;;6.10;99.90;;;;;;5029001;28;19941;-73
2020/12/20 02:35:20;;;;;;;23.40;18.35;;;6.10;99.90;;;;;;5026227;28;20041;-69
2020/12/20 02:37:48;;;;;;;28.73;20.00;;;6.10;99.90;;;;;;5027833;28;20052;-70
2020/12/20 02:40:14;;;;;;;26.17;20.50;;;6.10;99.90;;;;;;5027461;28;20152;-71
2020/12/20 02:42:49;;;;;;;27.98;19.73;;;6.10;99.90;;;;;;5025451;28;20049;-76
2020/12/20 02:45:15;;;;;;;28.30;18.77;;;6.10;99.90;;;;;;5030550;28;20152;-69
2020/12/20 02:47:42;;;;;;;29.55;20.92;;;6.20;99.90;;;;;;5024627;28;20044;-72
2020/12/20 02:50:09;;;;;;;26.92;18.60;;;6.20;99.90;;;;;;5026822;28;20484;-71
2020/12/20 02:52:41;;;;;;;32.03;20.48;;;6.10;99.90;;;;;;5027472;28;20132;-72
2020/12/20 02:55:08;;;;;;;28.45;20.20;;;6.10;99.90;;;;;;5032545;28;20037;-68
2020/12/20 02:57:38;;;;;;;;;;;6.10;99.90;;;;;;5027271;28;20428;-68
2020/12/20 03:00:25;;;;;;;35.03;20.52;;;6.10;99.90;;;;;;5029439;28;20062;-70
2020/12/20 03:02:53;;;;;;;29.70;20.10;;;6.10;99.90;;;;;;5031003;28;20049;-73
2020/12/20 03:05:19;;;;;;;34.97;21.02;;;6.10;99.90;;;;;;5027110;28;20460;-72
2020/12/20 03:07:50;;;;;;;35.45;21.80;;;6.10;99.90;;;;;;5031148;28;20045;-70
2020/12/20 03:10:17;;;;;;;32.05;21.35;;;6.10;99.90;;;;;;5022692;28;20393;-69
2020/12/20 03:12:46;;;;;;;30.33;20.48;;;6.10;99.90;;;;;;5022160;28;20054;-69
2020/12/20 03:15:15;;;;;;;32.22;21.48;;;6.10;99.90;;;;;;5031910;28;20049;-72
2020/12/20 03:17:42;;;;;;;27.45;21.27;;;6.10;99.90;;;;;;5024840;28;20041;-71
2020/12/20 03:20:09;;;;;;;35.45;22.23;;;6.10;99.90;;;;;;5026236;28;20049;-73
2020/12/20 03:22:36;;;;;;;28.48;19.70;;;6.10;99.90;;;;;;5024375;28;20709;-75
2020/12/20 03:25:33;;;;;;;36.08;22.08;;;6.10;99.90;;;;;;5024869;28;20553;-69
2020/12/20 03:28:15;;;;;;;32.50;22.08;;;6.10;99.90;;;;;;5023721;28;20146;-68
2020/12/20 03:31:05;;;;;;;34.20;20.83;;;6.10;99.90;;;;;;5030667;28;20588;-68
2020/12/20 03:33:43;;;;;;;34.88;20.77;;;6.10;99.90;;;;;;5029333;28;20056;-68
2020/12/20 03:36:31;;;;;;;32.33;23.13;;;6.10;99.90;;;;;;5023436;28;20563;-75
2020/12/20 03:38:59;;;;;;;32.85;23.10;;;6.10;99.90;;;;;;5054276;28;20045;-70
2020/12/20 03:41:27;;;;;;;30.02;20.60;;;6.10;99.90;;;;;;5025264;28;20072;-73
2020/12/20 03:43:53;;;;;;;33.40;22.45;;;6.10;99.90;;;;;;5027647;28;20049;-71
2020/12/20 03:46:20;;;;;;;38.40;24.75;;;6.10;99.90;;;;;;5035524;28;20049;-68
2020/12/20 03:48:49;;;;;;;33.25;23.23;;;6.10;99.90;;;;;;5016109;28;20685;-73
2020/12/20 03:51:19;;;;;;;35.22;23.45;;;6.10;99.90;;;;;;5040274;28;20145;-73
2020/12/20 03:53:51;;;;;;;37.50;22.30;;;6.10;99.90;;;;;;5032138;28;20053;-69
2020/12/20 03:56:19;;;;;;;40.10;23.02;;;6.10;99.90;;;;;;5027536;28;20730;-75
2020/12/20 03:59:06;;;;;;;44.83;23.83;;;6.10;99.90;;;;;;5028248;28;20081;-70
2020/12/20 04:01:33;;;;;;;41.35;25.10;;;6.10;99.90;;;;;;5062442;28;20518;-70
2020/12/20 04:03:59;;;;;;;39.22;24.10;;;6.10;99.90;;;;;;5056839;28;20045;-72
2020/12/20 04:06:26;;;;;;;40.15;23.67;;;6.00;99.90;;;;;;5033846;28;20072;-73
2020/12/20 04:08:53;;;;;;;37.88;24.92;;;6.00;99.90;;;;;;5025001;28;20049;-75
2020/12/20 04:11:38;;;;;;;38.38;26.90;;;6.00;99.90;;;;;;5032430;28;20045;-68
2020/12/20 04:14:06;;;;;;;48.53;26.90;;;6.00;99.90;;;;;;5024249;28;20054;-67
2020/12/20 04:16:35;;;;;;;44.47;24.27;;;6.00;99.90;;;;;;5023032;28;20046;-72
2020/12/20 04:19:02;;;;;;;49.25;28.95;;;6.00;99.90;;;;;;5027747;28;20404;-70
2020/12/20 04:21:34;;;;;;;50.00;27.00;;;6.00;99.90;;;;;;5032321;28;20128;-72
2020/12/20 04:24:06;;;;;;;41.03;24.75;;;6.00;99.90;;;;;;5027288;28;20059;-72
2020/12/20 04:26:32;;;;;;;49.47;28.42;;;6.00;99.90;;;;;;5032872;28;20098;-68
2020/12/20 04:29:11;;;;;;;44.83;26.92;;;6.00;99.90;;;;;;5026643;28;20037;-70
2020/12/20 04:31:42;;;;;;;53.35;29.92;;;6.00;99.90;;;;;;5029020;28;20060;-73
2020/12/20 04:34:11;;;;;;;48.78;27.88;;;6.00;99.90;;;;;;5024720;28;20693;-69
2020/12/20 04:36:38;;;;;;;45.60;28.85;;;6.00;99.90;;;;;;5023972;28;20205;-68
2020/12/20 04:39:25;;;;;;;54.78;30.58;;;6.00;99.90;;;;;;5032906;28;20125;-71
2020/12/20 04:41:54;;;;;;;52.83;30.60;;;6.00;99.90;;;;;;5062302;28;20138;-76
2020/12/20 04:44:21;;;;;;;52.63;28.10;;;5.90;99.90;;;;;;5026982;28;20037;-70
2020/12/20 04:46:57;;;;;;;52.53;31.17;;;5.90;99.90;;;;;;5026403;28;20054;-75
2020/12/20 04:49:35;;;;;;;48.60;28.90;;;5.90;99.90;;;;;;5025860;28;20049;-71
2020/12/20 04:52:09;;;;;;;50.75;31.48;;;6.00;99.90;;;;;;5028819;28;20045;-72
2020/12/20 04:54:40;;;;;;;49.72;27.00;;;6.00;99.90;;;;;;5020807;28;20247;-71
2020/12/20 04:57:15;;;;;;;52.13;27.90;;;6.00;99.90;;;;;;5028790;28;20064;-73
2020/12/20 04:59:45;;;;;;;64.95;30.30;;;5.90;99.90;;;;;;5028904;28;20428;-70
2020/12/20 05:02:15;;;;;;;49.00;30.33;;;5.90;99.90;;;;;;5024590;28;20492;-71
2020/12/20 05:04:43;;;;;;;51.38;28.38;;;5.90;99.90;;;;;;5030182;28;20128;-69
2020/12/20 05:07:12;;;;;;;48.00;26.92;;;5.90;99.90;;;;;;5025239;28;20238;-76
2020/12/20 05:09:48;;;;;;;50.65;27.33;;;6.00;99.90;;;;;;5021872;28;20049;-69
2020/12/20 05:12:29;;;;;;;50.60;29.75;;;5.90;99.90;;;;;;5027965;28;20057;-72
2020/12/20 05:15:21;;;;;;;56.80;28.27;;;5.90;99.90;;;;;;5025389;28;20052;-70
2020/12/20 05:18:07;;;;;;;48.58;27.55;;;5.90;99.90;;;;;;5061954;28;20045;-68
2020/12/20 05:20:41;;;;;;;42.17;25.98;;;5.90;99.90;;;;;;5042837;28;20207;-73
2020/12/20 05:23:13;;;;;;;58.72;28.73;;;6.00;99.90;;;;;;5028631;28;20053;-70
2020/12/20 05:26:05;;;;;;;52.10;28.88;;;6.00;99.90;;;;;;5026507;28;20756;-74
2020/12/20 05:28:35;;;;;;;45.75;27.67;;;5.90;99.90;;;;;;5028850;28;20323;-67
2020/12/20 05:31:09;;;;;;;50.53;29.73;;;5.90;99.90;;;;;;5029664;28;20053;-73
2020/12/20 05:33:48;;;;;;;51.03;30.52;;;5.90;99.90;;;;;;5037059;28;20056;-75
2020/12/20 05:36:26;;;;;;;61.10;30.10;;;5.90;99.90;;;;;;5025563;28;20056;-72
2020/12/20 05:39:12;;;;;;;71.95;32.17;;;5.90;99.90;;;;;;5026465;28;20750;-71
2020/12/20 05:41:39;;;;;;;47.55;27.77;;;5.90;99.90;;;;;;5029013;28;20049;-78
2020/12/20 05:44:14;;;;;;;62.75;31.02;;;5.90;99.90;;;;;;5028063;28;20046;-77
2020/12/20 05:47:05;;;;;;;52.33;28.27;;;5.90;99.90;;;;;;5025981;28;20114;-71
2020/12/20 05:49:37;;;;;;;53.03;29.42;;;5.90;99.90;;;;;;5045031;28;20151;-78
2020/12/20 05:52:10;;;;;;;50.30;29.70;;;5.90;99.90;;;;;;5022619;28;20041;-68
2020/12/20 05:54:41;;;;;;;62.03;30.48;;;5.90;99.90;;;;;;5023002;28;20052;-73
2020/12/20 05:57:12;;;;;;;57.83;28.08;;;5.90;99.90;;;;;;5027904;28;20049;-67
2020/12/20 05:59:43;;;;;;;55.97;30.35;;;5.90;99.90;;;;;;5027234;28;20034;-68
2020/12/20 06:02:10;;;;;;;59.08;31.35;;;5.90;99.90;;;;;;5029798;28;20042;-71
2020/12/20 06:04:38;;;;;;;61.63;31.48;;;5.90;99.90;;;;;;5027649;28;20115;-73
2020/12/20 06:07:08;;;;;;;52.72;31.10;;;5.90;99.90;;;;;;5023102;28;20053;-72
2020/12/20 06:09:59;;;;;;;55.30;30.42;;;5.90;99.90;;;;;;5026849;28;20420;-69
2020/12/20 06:12:39;;;;;;;56.70;32.70;;;5.90;99.90;;;;;;5026533;28;20388;-72
2020/12/20 06:15:11;;;;;;;53.80;30.80;;;5.90;99.90;;;;;;5024894;28;20220;-68
2020/12/20 06:17:44;;;;;;;54.22;31.05;;;5.90;99.90;;;;;;5026148;28;20041;-79
2020/12/20 06:20:27;;;;;;;66.95;33.95;;;5.90;99.90;;;;;;5027606;28;20037;-71
2020/12/20 06:22:54;;;;;;;65.07;31.48;;;5.90;99.90;;;;;;5022530;28;20658;-68
2020/12/20 06:25:26;;;;;;;61.17;32.72;;;5.90;99.90;;;;;;5023977;28;20149;-68
2020/12/20 06:28:01;;;;;;;60.92;32.22;;;5.90;99.90;;;;;;5022793;28;20666;-70
2020/12/20 06:30:27;;;;;;;59.05;34.35;;;5.90;99.90;;;;;;5031696;28;20057;-71
2020/12/20 06:32:59;;;;;;;60.35;36.10;;;5.90;99.90;;;;;;5022605;28;20045;-68
2020/12/20 06:35:27;;;;;;;62.38;34.13;;;5.90;99.90;;;;;;5024094;28;20053;-71
2020/12/20 06:37:55;;;;;;;64.68;32.10;;;5.90;99.90;;;;;;5021817;28;20044;-69
2020/12/20 06:40:21;;;;;;;69.95;35.92;;;6.00;99.90;;;;;;5027797;28;20048;-71
2020/12/20 06:42:52;;;;;;;56.58;32.63;;;6.00;99.90;;;;;;5026325;28;20069;-71
2020/12/20 06:45:20;;;;;;;65.22;35.33;;;6.00;99.90;;;;;;5030022;28;20046;-69
2020/12/20 06:47:48;;;;;;;57.92;33.60;;;6.00;99.90;;;;;;5023357;28;20068;-74
2020/12/20 06:50:41;;;;;;;57.15;31.88;;;6.00;99.90;;;;;;5027009;28;20123;-69
2020/12/20 06:53:13;;;;;;;66.68;36.75;;;6.00;99.90;;;;;;5025509;28;20038;-69
2020/12/20 06:55:40;;;;;;;64.03;36.15;;;6.00;99.90;;;;;;5027087;28;20053;-72
2020/12/20 06:58:12;;;;;;;73.45;37.47;;;6.00;99.90;;;;;;5032104;28;20044;-74
2020/12/20 07:00:39;;;;;;;68.65;40.13;;;6.00;99.90;;;;;;5030649;28;20063;-68
2020/12/20 07:03:06;;;;;;;60.25;34.35;;;6.00;99.90;;;;;;5026660;28;20444;-71
2020/12/20 07:05:33;;;;;;;58.00;34.60;;;6.00;99.90;;;;;;5028441;28;20045;-76
2020/12/20 07:08:20;;;;;;;64.15;35.22;;;6.00;99.90;;;;;;5030385;28;20144;-73
2020/12/20 07:10:52;;;;;;;60.67;33.50;;;6.00;99.90;;;;;;5029323;28;20712;-71
2020/12/20 07:13:39;;;;;;;64.30;33.63;;;6.00;99.90;;;;;;5030852;28;20041;-68
2020/12/20 07:16:16;;;;;;;60.20;34.75;;;6.00;99.90;;;;;;5014305;28;20385;-72
2020/12/20 07:18:56;;;;;;;63.90;32.58;;;6.00;99.90;;;;;;5007088;28;20124;-71
2020/12/20 07:21:22;;;;;;;60.13;35.42;;;6.10;99.90;;;;;;5010200;28;20148;-75
2020/12/20 07:24:19;;;;;;;56.78;32.50;;;6.10;99.90;;;;;;5009480;28;20124;-68
2020/12/20 07:26:47;;;;;;;58.78;34.38;;;6.10;99.90;;;;;;5007859;28;20434;-73
2020/12/20 07:29:14;;;;;;;48.42;28.52;;;6.10;99.90;;;;;;5013192;28;20100;-67
2020/12/20 07:31:44;;;;;;;54.17;33.17;;;6.10;99.90;;;;;;5009549;28;20118;-70
2020/12/20 07:34:11;;;;;;;50.35;32.80;;;6.10;99.90;;;;;;5005964;28;20104;-71
2020/12/20 07:36:38;;;;;;;52.65;31.60;;;6.10;99.90;;;;;;5006215;28;20037;-75
2020/12/20 07:39:06;;;;;;;54.65;32.03;;;6.10;99.90;;;;;;5006081;28;20108;-72
2020/12/20 07:41:33;;;;;;;63.70;36.15;;;6.10;99.90;;;;;;5016302;28;20446;-72
2020/12/20 07:44:07;;;;;;;56.83;35.60;;;6.10;99.90;;;;;;5014279;28;20060;-77
2020/12/20 07:46:34;;;;;;;51.63;31.63;;;6.10;99.90;;;;;;5005758;28;20049;-69
2020/12/20 07:49:05;;;;;;;54.03;34.33;;;6.10;99.90;;;;;;5002025;28;20432;-68
2020/12/20 07:51:32;;;;;;;62.75;35.28;;;6.10;99.90;;;;;;5011898;28;20069;-70
2020/12/20 07:54:00;;;;;;;55.33;31.15;;;6.10;99.90;;;;;;5008405;28;20050;-70
2020/12/20 07:56:30;;;;;;;54.85;31.67;;;6.10;99.90;;;;;;5012482;28;20425;-75
2020/12/20 07:59:00;;;;;;;51.72;30.40;;;6.10;99.90;;;;;;5008614;28;20037;-72
2020/12/20 08:01:27;;;;;;;58.70;33.88;;;6.20;99.90;;;;;;5009577;28;20712;-74
2020/12/20 08:04:10;;;;;;;58.25;32.00;;;6.20;99.90;;;;;;5010186;28;20473;-68
2020/12/20 08:06:39;;;;;;;60.40;35.00;;;6.10;99.90;;;;;;5003535;28;20065;-73
2020/12/20 08:09:15;;;;;;;55.92;35.10;;;6.20;99.90;;;;;;5009749;28;20600;-68
2020/12/20 08:11:44;;;;;;;61.42;37.50;;;6.20;99.90;;;;;;5008163;28;20212;-75
2020/12/20 08:14:12;;;;;;;62.83;35.08;;;6.10;99.90;;;;;;5007062;28;20053;-70
2020/12/20 08:16:44;;;;;;;62.72;37.05;;;6.20;99.90;;;;;;5010640;28;20087;-71
2020/12/20 08:19:19;;;;;;;60.83;37.53;;;6.20;99.90;;;;;;5005587;28;20465;-70
2020/12/20 08:21:47;;;;;;;73.30;37.60;;;6.20;99.90;;;;;;5005665;28;20481;-72
2020/12/20 08:24:15;;;;;;;64.72;38.00;;;6.20;99.90;;;;;;5009956;28;20490;-69
2020/12/20 08:26:43;;;;;;;71.85;37.53;;;6.20;99.90;;;;;;5004752;28;20061;-69
2020/12/20 08:29:13;;;;;;;62.95;34.38;;;6.20;99.90;;;;;;5011798;28;20129;-70
2020/12/20 08:31:44;;;;;;;65.78;36.78;;;6.20;99.90;;;;;;5010031;28;20646;-68
2020/12/20 08:34:23;;;;;;;59.85;35.33;;;6.20;99.90;;;;;;5007583;28;20452;-67
2020/12/20 08:36:52;;;;;;;51.72;32.83;;;6.20;99.90;;;;;;5003990;28;20049;-79
2020/12/20 08:39:25;;;;;;;58.57;33.33;;;6.20;99.90;;;;;;5004907;28;20046;-69
2020/12/20 08:42:05;;;;;;;53.50;33.58;;;6.20;99.90;;;;;;5011098;28;20046;-77
2020/12/20 08:44:32;;;;;;;59.38;34.75;;;6.20;99.90;;;;;;5007086;28;20149;-72
2020/12/20 08:47:13;;;;;;;51.50;35.17;;;6.30;99.90;;;;;;5002050;28;20037;-72
2020/12/20 08:49:53;;;;;;;57.25;31.75;;;6.30;99.90;;;;;;5006848;28;20052;-75
2020/12/20 08:52:20;;;;;;;58.65;36.20;;;6.30;99.90;;;;;;5006278;28;20051;-74
2020/12/20 08:54:51;;;;;;;61.63;34.03;;;6.30;99.90;;;;;;5004587;28;20115;-74
2020/12/20 08:57:23;;;;;;;54.38;34.00;;;6.30;99.90;;;;;;5008646;28;20504;-77
2020/12/20 08:59:49;;;;;;;60.80;35.88;;;6.30;99.90;;;;;;5007197;28;20072;-71
2020/12/20 09:02:22;;;;;;;60.25;36.78;;;6.30;99.90;;;;;;5005230;28;20147;-70
2020/12/20 09:05:00;;;;;;;50.80;32.55;;;6.40;99.90;;;;;;5013028;28;20042;-68
2020/12/20 09:07:33;;;;;;;;;;;6.40;99.90;;;;;;5007352;28;20049;-70
2020/12/20 09:10:15;;;;;;;53.53;32.63;;;6.40;99.90;;;;;;5008495;28;20404;-72
2020/12/20 09:12:54;;;;;;;53.58;34.30;;;6.40;99.90;;;;;;5005376;28;20119;-69
2020/12/20 09:15:22;;;;;;;55.15;31.75;;;6.40;99.90;;;;;;5004709;28;20053;-72
2020/12/20 09:17:51;;;;;;;54.95;30.85;;;6.40;99.90;;;;;;5004093;28;20045;-69
2020/12/20 09:20:23;;;;;;;55.95;34.75;;;6.40;99.90;;;;;;5009525;28;20115;-71
2020/12/20 09:22:57;;;;;;;51.80;32.45;;;6.40;99.90;;;;;;5003039;28;20453;-69
2020/12/20 09:25:44;;;;;;;53.03;31.17;;;6.40;99.90;;;;;;5003581;28;20053;-71
2020/12/20 09:28:12;;;;;;;54.47;32.35;;;6.40;99.90;;;;;;5011712;28;20100;-68
2020/12/20 09:30:45;;;;;;;53.85;33.88;;;6.40;99.90;;;;;;5006036;28;20077;-70
2020/12/20 09:33:32;;;;;;;54.58;32.65;;;6.50;99.90;;;;;;5011093;28;20100;-68
2020/12/20 09:36:04;;;;;;;49.67;31.98;;;6.50;99.90;;;;;;5007131;28;20370;-73
2020/12/20 09:38:57;;;;;;;45.03;28.30;;;6.50;99.90;;;;;;5004747;28;20042;-67
2020/12/20 09:41:25;;;;;;;57.42;33.45;;;6.50;99.90;;;;;;5009521;28;20045;-71
2020/12/20 09:43:53;;;;;;;52.47;32.03;;;6.50;99.90;;;;;;5013876;28;20156;-70
2020/12/20 09:46:25;;;;;;;51.28;28.48;;;6.50;99.90;;;;;;5005634;28;20042;-74
2020/12/20 09:48:53;;;;;;;47.05;29.83;;;6.50;99.90;;;;;;5005108;28;20042;-71
2020/12/20 09:51:22;;;;;;;53.25;34.08;;;6.50;99.90;;;;;;5007507;28;20732;-72
2020/12/20 09:53:49;;;;;;;43.97;27.77;;;6.50;99.90;;;;;;5007614;28;20611;-68
2020/12/20 09:56:16;;;;;;;46.97;29.45;;;6.50;99.90;;;;;;5015435;28;20065;-74
2020/12/20 09:58:45;;;;;;;59.83;31.92;;;6.50;99.90;;;;;;5003868;28;20707;-68
2020/12/20 10:01:18;;;;;;;58.42;31.23;;;6.50;99.90;;;;;;5007940;28;20378;-74
2020/12/20 10:03:45;;;;;;;53.75;32.05;;;6.50;99.90;;;;;;5014143;28;20128;-71
2020/12/20 10:06:13;;;;;;;48.95;29.70;;;6.50;99.90;;;;;;5004338;28;20127;-72
2020/12/20 10:08:40;;;;;;;52.35;32.38;;;6.40;99.90;;;;;;5010722;28;20046;-72
2020/12/20 10:11:13;;;;;;;53.38;31.48;;;6.50;99.90;;;;;;5023524;28;20059;-73
2020/12/20 10:13:40;;;;;;;53.22;31.65;;;6.50;99.90;;;;;;5024193;28;20052;-70
2020/12/20 10:16:06;;;;;;;51.15;31.95;;;6.50;99.90;;;;;;5026054;28;20130;-80
2020/12/20 10:18:37;;;;;;;51.80;31.67;;;6.50;99.90;;;;;;5024159;28;20146;-72
2020/12/20 10:21:04;;;;;;;52.22;32.50;;;6.50;99.90;;;;;;5027485;28;21308;-71
2020/12/20 10:27:31;;;;;;;53.10;32.25;;;6.50;99.90;;;;;;5025311;28;20048;-70
2020/12/20 10:29:57;;;;;;;53.30;32.75;;;6.50;99.90;;;;;;5027042;28;20046;-75
2020/12/20 10:32:23;;;;;;;52.47;31.38;;;6.50;99.90;;;;;;5026471;28;20152;-74
2020/12/20 10:34:50;;;;;;;55.75;32.47;;;6.50;99.90;;;;;;5032588;28;20053;-73
2020/12/20 10:37:17;;;;;;;45.50;29.85;;;6.60;99.90;;;;;;5031612;28;20135;-73
2020/12/20 10:39:43;;;;;;;48.97;30.58;;;6.60;99.90;;;;;;5033745;28;20045;-71
2020/12/20 10:42:14;;;;;;;60.78;34.85;;;6.60;99.90;;;;;;5028330;28;20030;-71
2020/12/20 10:44:42;;;;;;;60.25;34.33;;;6.60;99.90;;;;;;5030233;28;20152;-71
2020/12/20 10:47:08;;;;;;;46.10;31.80;;;6.60;99.90;;;;;;5025321;28;20594;-68
2020/12/20 10:49:35;;;;;;;55.53;34.53;;;6.50;99.90;;;;;;5030051;28;20037;-76
2020/12/20 10:52:01;;;;;;;58.63;35.75;;;6.50;99.90;;;;;;5027470;28;20667;-75
2020/12/20 10:54:31;;;;;;;63.50;36.53;;;6.50;99.90;;;;;;5025777;28;20377;-68
2020/12/20 10:56:58;;;;;;;62.28;34.13;;;6.50;99.90;;;;;;5031413;28;20114;-77
2020/12/20 10:59:26;;;;;;;57.67;32.83;;;6.50;99.90;;;;;;5032841;28;20051;-71
2020/12/20 11:01:54;;;;;;;54.90;33.38;;;6.50;99.90;;;;;;5028874;28;20099;-68
2020/12/20 11:04:22;;;;;;;54.47;33.47;;;6.60;99.90;;;;;;5028714;28;21178;-69
2020/12/20 11:06:53;;;;;;;59.08;32.88;;;6.60;99.90;;;;;;5034797;28;20052;-71
2020/12/20 11:09:20;;;;;;;56.50;35.47;;;6.50;99.90;;;;;;5027146;28;20087;-75
2020/12/20 11:11:46;;;;;;;58.55;33.78;;;6.50;99.90;;;;;;5034076;28;20053;-70
2020/12/20 11:14:12;;;;;;;56.83;33.50;;;6.50;99.90;;;;;;5025357;28;20055;-73
2020/12/20 11:16:39;;;;;;;56.92;32.42;;;6.50;99.90;;;;;;5028245;28;20037;-75
2020/12/20 11:19:05;;;;;;;59.10;32.83;;;6.50;99.90;;;;;;5024512;28;20178;-72
2020/12/20 11:21:32;;;;;;;61.72;36.40;;;6.50;99.90;;;;;;5027354;28;20046;-73
2020/12/20 11:23:59;;;;;;;64.82;35.70;;;6.50;99.90;;;;;;5030208;28;20049;-69
2020/12/20 11:26:25;;;;;;;54.35;33.80;;;6.50;99.90;;;;;;5025665;28;20076;-71
2020/12/20 11:28:53;;;;;;;64.32;36.17;;;6.50;99.90;;;;;;5025657;28;20126;-72
2020/12/20 11:31:22;;;;;;;63.80;36.38;;;6.50;99.90;;;;;;5030972;28;20574;-69
2020/12/20 11:33:50;;;;;;;58.65;32.60;;;6.50;99.90;;;;;;5025929;28;20110;-67
2020/12/20 11:36:22;;;;;;;62.80;36.13;;;6.50;99.90;;;;;;5032145;28;20131;-74
2020/12/20 11:38:49;;;;;;;63.13;36.30;;;6.50;99.90;;;;;;5031962;28;20106;-69
2020/12/20 11:41:23;;;;;;;69.07;34.47;;;6.40;99.90;;;;;;5029542;28;20038;-68
2020/12/20 11:43:50;;;;;;;65.60;34.95;;;6.40;99.90;;;;;;5025012;28;20114;-70
2020/12/20 11:46:17;;;;;;;67.28;36.50;;;6.50;99.90;;;;;;5024813;28;20037;-72
2020/12/20 11:48:44;;;;;;;62.10;34.88;;;6.40;99.90;;;;;;5023689;28;20049;-73
2020/12/20 11:51:13;;;;;;;65.20;36.03;;;6.40;99.90;;;;;;5036869;28;20072;-71
2020/12/20 11:53:40;;;;;;;64.90;35.97;;;6.40;99.90;;;;;;5027638;28;20056;-72
2020/12/20 11:56:16;;;;;;;72.32;38.15;;;6.50;99.90;;;;;;5025302;28;20080;-72
2020/12/20 11:58:44;;;;;;;66.28;35.28;;;6.40;99.90;;;;;;5026371;28;20131;-73
2020/12/20 12:01:11;;;;;;;61.20;35.97;;;6.50;99.90;;;;;;5027483;28;20076;-72
2020/12/20 12:03:38;;;;;;;62.85;36.40;;;6.50;99.90;;;;;;5025037;28;20411;-72
2020/12/20 12:06:06;;;;;;;66.40;37.35;;;6.50;99.90;;;;;;5028489;28;20120;-71
2020/12/20 12:08:33;;;;;;;66.72;34.63;;;6.50;99.90;;;;;;5025922;28;20084;-72
2020/12/20 12:10:59;;;;;;;62.13;34.80;;;6.50;99.90;;;;;;5022869;28;20049;-70
2020/12/20 12:13:26;;;;;;;67.60;35.60;;;6.50;99.90;;;;;;5028017;28;20507;-68
2020/12/20 12:15:52;;;;;;;66.93;35.95;;;6.50;99.90;;;;;;5025730;28;20225;-72
2020/12/20 12:18:19;;;;;;;65.72;38.15;;;6.50;99.90;;;;;;5027893;28;20573;-68
2020/12/20 12:20:45;;;;;;;60.60;36.45;;;6.50;99.90;;;;;;5024814;28;20094;-74
2020/12/20 12:23:11;;;;;;;65.00;35.83;;;6.50;99.90;;;;;;5029674;28;20156;-68
2020/12/20 12:25:38;;;;;;;64.38;36.33;;;6.50;99.90;;;;;;5028040;28;20407;-68
2020/12/20 12:28:04;;;;;;;64.22;40.10;;;6.50;99.90;;;;;;5028086;28;20793;-77
2020/12/20 12:30:31;;;;;;;66.85;37.55;;;6.50;99.90;;;;;;5029357;28;20037;-70
2020/12/20 12:32:57;;;;;;;63.10;36.50;;;6.50;99.90;;;;;;5023841;28;20048;-74
2020/12/20 12:35:24;;;;;;;62.20;36.05;;;6.50;99.90;;;;;;5026634;28;20132;-71
2020/12/20 12:37:51;;;;;;;70.35;36.03;;;6.50;99.90;;;;;;5026215;28;20052;-71
2020/12/20 12:40:20;;;;;;;71.53;36.67;;;6.50;99.90;;;;;;5026554;28;20056;-73
2020/12/20 12:42:47;;;;;;;55.15;32.42;;;6.50;99.90;;;;;;5026780;28;20440;-73
2020/12/20 12:45:14;;;;;;;67.93;35.42;;;6.50;99.90;;;;;;5028715;28;20073;-71
2020/12/20 12:47:42;;;;;;;65.25;37.60;;;6.40;99.90;;;;;;5024576;28;20076;-72
2020/12/20 12:50:09;;;;;;;60.45;37.10;;;6.50;99.90;;;;;;5023604;28;20055;-67
2020/12/20 12:52:36;;;;;;;72.82;37.60;;;6.50;99.90;;;;;;5022341;28;20115;-71
2020/12/20 12:55:03;;;;;;;75.43;39.53;;;6.40;99.90;;;;;;5028578;28;20088;-68
2020/12/20 12:57:30;;;;;;;66.85;36.45;;;6.50;99.90;;;;;;5029239;28;20852;-75
2020/12/20 12:59:58;;;;;;;66.72;37.58;;;6.50;99.90;;;;;;5027592;28;20047;-76